Buckeye, Louisiana
Current Conditions -  °F | °C
As of 1:53 PM on Friday 19 Dec 2014 (Local Time) from KESF Reporting Station
Light Rain Light Rain  
Wind Chill: 50°   Ceiling: 600
Heat Index: 50°   Visibility: 10mi
Dew Point: 48°   Wind: 7mph
Humidity: 93%   Direction: NA
Pressure: 30.09"   Gusts: NA
Location:  31.3606°N, 92.2142°W
Report Text: KESF 191953Z AUTO VRB06KT 10SM -RA BKN006 OVC011 10/09 A3009 RMK AO2 CIG 004V008 SLP188 P0007 T01000089
Loading
Personal Weather Stations






























Interactive Weather Map New forecast layout! Learn more

10-Day Weather Forecast

Advertisements
Track Severe Weather on mobile